METAR Data
IDs: Format: Raw Decoded Include TAF

Data at: 1422 UTC 27 Nov 2021

LIPQ 271350Z AUTO 11003KT 9999 NCD 12/08 Q0994